BAW338 EGLL-LFMN
Flight info
| Callsign | BAW338 |
|---|---|
| Flight time | 1h 33m |
| Altitude | 33000 |
| Route | MODMI M185 MID L612 BOGNA UL612 VEULE DCT KOTAP DCT KETEX DCT KOTIS DCT KUKOR DCT UTUVA DCT LERGA DCT LIQID DCT LATAM DCT TUNUR DCT NISAR |
| Aircraft | A21N/M-SDE2E3FGHIRWXY/LB1 |
Departure
| Time | 2026-05-05 09:29 |
|---|---|
| Airport | London Heathrow Airport (EGLL) |
Arrival
| Time | 2026-05-05 11:03 |
|---|---|
| Airport | Nice-Côte d'Azur Airport (LFMN) |
| Time | Latitude | Longitude | Altitude | Speed | Heading |
|---|---|---|---|---|---|
| 2026-05-05 09:13 | 51.47187 | -0.48594 | 92 ft | 0 kts | 269° |
| 2026-05-05 09:18 | 51.47187 | -0.48582 | 91 ft | 4 kts | 270° |
| 2026-05-05 09:19 | 51.47187 | -0.48539 | 91 ft | 4 kts | 268° |
| 2026-05-05 09:19 | 51.47190 | -0.48497 | 91 ft | 4 kts | 248° |
| 2026-05-05 09:19 | 51.47201 | -0.48475 | 94 ft | 2 kts | 180° |
| 2026-05-05 09:19 | 51.47203 | -0.48475 | 93 ft | 0 kts | 179° |
| 2026-05-05 09:21 | 51.47202 | -0.48475 | 93 ft | 0 kts | 179° |
| 2026-05-05 09:22 | 51.47189 | -0.48475 | 91 ft | 3 kts | 179° |
| 2026-05-05 09:22 | 51.47155 | -0.48475 | 91 ft | 6 kts | 178° |
| 2026-05-05 09:22 | 51.47096 | -0.48472 | 91 ft | 11 kts | 179° |
| 2026-05-05 09:23 | 51.47009 | -0.48470 | 95 ft | 14 kts | 180° |
| 2026-05-05 09:23 | 51.46908 | -0.48470 | 95 ft | 15 kts | 179° |
| 2026-05-05 09:23 | 51.46862 | -0.48469 | 92 ft | 0 kts | 179° |
| 2026-05-05 09:23 | 51.46840 | -0.48469 | 92 ft | 10 kts | 179° |
| 2026-05-05 09:24 | 51.46761 | -0.48468 | 92 ft | 12 kts | 180° |
| 2026-05-05 09:24 | 51.46671 | -0.48480 | 92 ft | 14 kts | 230° |
| 2026-05-05 09:24 | 51.46651 | -0.48645 | 92 ft | 16 kts | 268° |
| 2026-05-05 09:24 | 51.46620 | -0.48757 | 95 ft | 11 kts | 195° |
| 2026-05-05 09:25 | 51.46604 | -0.48766 | 94 ft | 0 kts | 200° |
| 2026-05-05 09:26 | 51.46603 | -0.48766 | 94 ft | 1 kts | 200° |
| 2026-05-05 09:26 | 51.46584 | -0.48778 | 93 ft | 5 kts | 200° |
| 2026-05-05 09:26 | 51.46533 | -0.48789 | 92 ft | 10 kts | 178° |
| 2026-05-05 09:26 | 51.46481 | -0.48704 | 93 ft | 13 kts | 99° |
| 2026-05-05 09:27 | 51.46478 | -0.48605 | 92 ft | 0 kts | 90° |
| 2026-05-05 09:28 | 51.46478 | -0.48603 | 92 ft | 1 kts | 90° |
| 2026-05-05 09:28 | 51.46477 | -0.48372 | 92 ft | 58 kts | 90° |
| 2026-05-05 09:28 | 51.46483 | -0.47378 | 92 ft | 118 kts | 89° |
| 2026-05-05 09:29 | 51.46489 | -0.45778 | 92 ft | 166 kts | 89° |
| 2026-05-05 09:29 | 51.46471 | -0.43917 | 637 ft | 164 kts | 90° |
| 2026-05-05 09:29 | 51.46392 | -0.42060 | 1272 ft | 169 kts | 92° |
| 2026-05-05 09:29 | 51.46093 | -0.40148 | 1801 ft | 187 kts | 112° |
| 2026-05-05 09:30 | 51.45100 | -0.38625 | 2267 ft | 218 kts | 155° |
| 2026-05-05 09:30 | 51.43489 | -0.38190 | 2666 ft | 252 kts | 170° |
| 2026-05-05 09:30 | 51.41808 | -0.37179 | 3330 ft | 264 kts | 152° |
| 2026-05-05 09:30 | 51.40018 | -0.36439 | 4268 ft | 272 kts | 179° |
| 2026-05-05 09:31 | 51.38189 | -0.37133 | 5153 ft | 276 kts | 201° |
| 2026-05-05 09:31 | 51.36423 | -0.38401 | 5888 ft | 281 kts | 205° |
| 2026-05-05 09:31 | 51.34605 | -0.39546 | 6868 ft | 281 kts | 191° |
| 2026-05-05 09:31 | 51.32664 | -0.39550 | 7767 ft | 282 kts | 167° |
| 2026-05-05 09:32 | 51.30796 | -0.38556 | 8663 ft | 284 kts | 158° |
| 2026-05-05 09:32 | 51.28950 | -0.37356 | 9567 ft | 289 kts | 157° |
| 2026-05-05 09:32 | 51.27062 | -0.36150 | 10363 ft | 298 kts | 158° |
| 2026-05-05 09:32 | 51.25056 | -0.34909 | 10750 ft | 320 kts | 158° |
| 2026-05-05 09:33 | 51.22902 | -0.33599 | 11082 ft | 343 kts | 158° |
| 2026-05-05 09:33 | 51.20598 | -0.32204 | 11383 ft | 364 kts | 158° |
| 2026-05-05 09:33 | 51.18154 | -0.30739 | 11672 ft | 384 kts | 158° |
| 2026-05-05 09:33 | 51.15643 | -0.29239 | 12213 ft | 392 kts | 158° |
| 2026-05-05 09:34 | 51.13076 | -0.27701 | 12909 ft | 396 kts | 159° |
| 2026-05-05 09:34 | 51.10489 | -0.26152 | 13604 ft | 399 kts | 159° |
| 2026-05-05 09:34 | 51.07873 | -0.24592 | 14209 ft | 402 kts | 158° |
| 2026-05-05 09:34 | 51.05240 | -0.23021 | 14811 ft | 405 kts | 159° |
| 2026-05-05 09:35 | 51.02592 | -0.21452 | 15401 ft | 406 kts | 159° |
| 2026-05-05 09:35 | 50.97297 | -0.18308 | 16541 ft | 410 kts | 159° |
| 2026-05-05 09:35 | 50.94618 | -0.16720 | 17096 ft | 412 kts | 159° |
| 2026-05-05 09:36 | 50.91920 | -0.15121 | 17634 ft | 414 kts | 159° |
| 2026-05-05 09:36 | 50.89210 | -0.13518 | 18183 ft | 416 kts | 159° |
| 2026-05-05 09:36 | 50.87381 | -0.12438 | 18514 ft | 417 kts | 159° |
| 2026-05-05 09:36 | 50.84651 | -0.10832 | 18957 ft | 419 kts | 159° |
| 2026-05-05 09:37 | 50.81907 | -0.09222 | 19395 ft | 422 kts | 159° |
| 2026-05-05 09:37 | 50.79139 | -0.07596 | 19810 ft | 425 kts | 159° |
| 2026-05-05 09:37 | 50.76399 | -0.05985 | 20268 ft | 426 kts | 159° |
| 2026-05-05 09:37 | 50.73605 | -0.04349 | 20700 ft | 428 kts | 159° |
| 2026-05-05 09:38 | 50.70797 | -0.02704 | 21126 ft | 432 kts | 159° |
| 2026-05-05 09:38 | 50.67966 | -0.01043 | 21572 ft | 434 kts | 159° |
| 2026-05-05 09:38 | 50.65123 | 0.00618 | 22109 ft | 434 kts | 160° |
| 2026-05-05 09:38 | 50.62282 | 0.02279 | 22551 ft | 436 kts | 159° |
| 2026-05-05 09:39 | 50.59427 | 0.03954 | 23000 ft | 437 kts | 160° |
| 2026-05-05 09:39 | 50.56569 | 0.05623 | 23421 ft | 439 kts | 160° |
| 2026-05-05 09:39 | 50.53736 | 0.07271 | 23721 ft | 441 kts | 160° |
| 2026-05-05 09:39 | 50.50833 | 0.08956 | 23982 ft | 444 kts | 160° |
| 2026-05-05 09:40 | 50.47930 | 0.10641 | 24267 ft | 445 kts | 160° |
| 2026-05-05 09:40 | 50.45014 | 0.12331 | 24624 ft | 448 kts | 160° |
| 2026-05-05 09:40 | 50.42078 | 0.14026 | 25021 ft | 450 kts | 160° |
| 2026-05-05 09:40 | 50.39135 | 0.15723 | 25447 ft | 450 kts | 160° |
| 2026-05-05 09:41 | 50.36239 | 0.17393 | 26019 ft | 447 kts | 160° |
| 2026-05-05 09:41 | 50.33319 | 0.19074 | 26578 ft | 444 kts | 160° |
| 2026-05-05 09:41 | 50.30424 | 0.20740 | 27150 ft | 441 kts | 160° |
| 2026-05-05 09:41 | 50.27540 | 0.22398 | 27684 ft | 439 kts | 160° |
| 2026-05-05 09:42 | 50.24675 | 0.24041 | 28190 ft | 438 kts | 160° |
| 2026-05-05 09:42 | 50.21825 | 0.25703 | 28704 ft | 436 kts | 158° |
| 2026-05-05 09:42 | 50.19115 | 0.27823 | 29234 ft | 435 kts | 149° |
| 2026-05-05 09:42 | 50.16607 | 0.30337 | 29780 ft | 432 kts | 147° |
| 2026-05-05 09:43 | 50.14105 | 0.32936 | 30265 ft | 430 kts | 147° |
| 2026-05-05 09:43 | 50.11616 | 0.35520 | 30673 ft | 429 kts | 148° |
| 2026-05-05 09:43 | 50.09117 | 0.38096 | 31050 ft | 429 kts | 148° |
| 2026-05-05 09:43 | 50.06621 | 0.40658 | 31410 ft | 429 kts | 148° |
| 2026-05-05 09:44 | 50.04157 | 0.43178 | 31776 ft | 428 kts | 148° |
| 2026-05-05 09:44 | 50.01669 | 0.45719 | 32128 ft | 428 kts | 149° |
| 2026-05-05 09:44 | 49.99181 | 0.48257 | 32508 ft | 427 kts | 149° |
| 2026-05-05 09:44 | 49.96687 | 0.50798 | 32858 ft | 427 kts | 149° |
| 2026-05-05 09:45 | 49.91747 | 0.55824 | 32947 ft | 423 kts | 149° |
| 2026-05-05 09:45 | 49.86846 | 0.60795 | 32909 ft | 423 kts | 149° |
| 2026-05-05 09:46 | 49.82014 | 0.66032 | 32913 ft | 424 kts | 147° |
| 2026-05-05 09:46 | 49.77248 | 0.71317 | 32907 ft | 424 kts | 147° |
| 2026-05-05 09:47 | 49.72449 | 0.76620 | 32906 ft | 422 kts | 147° |
| 2026-05-05 09:47 | 49.67657 | 0.81904 | 32907 ft | 422 kts | 147° |
| 2026-05-05 09:48 | 49.62868 | 0.87169 | 32906 ft | 422 kts | 147° |
| 2026-05-05 09:48 | 49.58097 | 0.92400 | 32889 ft | 424 kts | 147° |
| 2026-05-05 09:49 | 49.53280 | 0.97671 | 32901 ft | 424 kts | 147° |
| 2026-05-05 09:49 | 49.48477 | 1.02914 | 32906 ft | 422 kts | 147° |
| 2026-05-05 09:50 | 49.43718 | 1.08092 | 32904 ft | 422 kts | 147° |
| 2026-05-05 09:50 | 49.38916 | 1.13305 | 32905 ft | 422 kts | 147° |
| 2026-05-05 09:51 | 49.34115 | 1.18505 | 32908 ft | 422 kts | 147° |
| 2026-05-05 09:51 | 49.29316 | 1.23690 | 32910 ft | 422 kts | 146° |
| 2026-05-05 09:52 | 49.24554 | 1.28826 | 32901 ft | 421 kts | 147° |
| 2026-05-05 09:52 | 49.19753 | 1.33988 | 32864 ft | 423 kts | 146° |
| 2026-05-05 09:53 | 49.14930 | 1.39164 | 32870 ft | 424 kts | 147° |
| 2026-05-05 09:53 | 49.10100 | 1.44334 | 32868 ft | 423 kts | 147° |
| 2026-05-05 09:54 | 49.05305 | 1.49457 | 32880 ft | 423 kts | 146° |
| 2026-05-05 09:54 | 49.00486 | 1.54589 | 32873 ft | 422 kts | 146° |
| 2026-05-05 09:55 | 48.95664 | 1.59710 | 32861 ft | 422 kts | 146° |
| 2026-05-05 09:55 | 48.90842 | 1.64821 | 32860 ft | 422 kts | 147° |
| 2026-05-05 09:56 | 48.86017 | 1.69921 | 32850 ft | 422 kts | 147° |
| 2026-05-05 09:56 | 48.81218 | 1.74984 | 32831 ft | 422 kts | 147° |
| 2026-05-05 09:57 | 48.76393 | 1.80063 | 32841 ft | 422 kts | 147° |
| 2026-05-05 09:57 | 48.71557 | 1.85137 | 32835 ft | 422 kts | 147° |
| 2026-05-05 09:58 | 48.66724 | 1.90202 | 32845 ft | 422 kts | 147° |
| 2026-05-05 09:58 | 48.61924 | 1.95218 | 32841 ft | 422 kts | 147° |
| 2026-05-05 09:59 | 48.57084 | 2.00260 | 32837 ft | 422 kts | 147° |
| 2026-05-05 09:59 | 48.52242 | 2.05296 | 32835 ft | 422 kts | 147° |
| 2026-05-05 10:00 | 48.47400 | 2.10322 | 32831 ft | 422 kts | 147° |
| 2026-05-05 10:00 | 48.42559 | 2.15336 | 32811 ft | 422 kts | 147° |
| 2026-05-05 10:01 | 48.37718 | 2.20330 | 32811 ft | 423 kts | 147° |
| 2026-05-05 10:01 | 48.32883 | 2.25311 | 32821 ft | 423 kts | 147° |
| 2026-05-05 10:02 | 48.27874 | 2.29940 | 32808 ft | 421 kts | 157° |
| 2026-05-05 10:02 | 48.22265 | 2.32497 | 32817 ft | 421 kts | 166° |
| 2026-05-05 10:03 | 48.16608 | 2.34683 | 32816 ft | 421 kts | 166° |
| 2026-05-05 10:03 | 48.10968 | 2.37135 | 32815 ft | 421 kts | 162° |
| 2026-05-05 10:04 | 48.05398 | 2.39917 | 32807 ft | 421 kts | 162° |
| 2026-05-05 10:04 | 47.99866 | 2.42672 | 32809 ft | 421 kts | 162° |
| 2026-05-05 10:05 | 47.94287 | 2.45437 | 32812 ft | 421 kts | 162° |
| 2026-05-05 10:05 | 47.88716 | 2.48195 | 32817 ft | 421 kts | 162° |
| 2026-05-05 10:06 | 47.83179 | 2.50927 | 32809 ft | 421 kts | 162° |
| 2026-05-05 10:06 | 47.77612 | 2.53671 | 32806 ft | 420 kts | 162° |
| 2026-05-05 10:07 | 47.72060 | 2.56398 | 32812 ft | 419 kts | 162° |
| 2026-05-05 10:07 | 47.66515 | 2.59117 | 32807 ft | 419 kts | 162° |
| 2026-05-05 10:08 | 47.61013 | 2.61808 | 32807 ft | 419 kts | 162° |
| 2026-05-05 10:08 | 47.55461 | 2.64516 | 32806 ft | 419 kts | 162° |
| 2026-05-05 10:09 | 47.49911 | 2.67222 | 32805 ft | 419 kts | 162° |
| 2026-05-05 10:09 | 47.44381 | 2.69911 | 32810 ft | 419 kts | 162° |
| 2026-05-05 10:10 | 47.38830 | 2.72602 | 32806 ft | 419 kts | 162° |
| 2026-05-05 10:10 | 47.33277 | 2.75287 | 32809 ft | 421 kts | 162° |
| 2026-05-05 10:11 | 47.27698 | 2.77981 | 32806 ft | 422 kts | 162° |
| 2026-05-05 10:11 | 47.22136 | 2.80660 | 32812 ft | 422 kts | 162° |
| 2026-05-05 10:12 | 47.16547 | 2.83346 | 32817 ft | 422 kts | 162° |
| 2026-05-05 10:12 | 47.10948 | 2.86029 | 32822 ft | 423 kts | 162° |
| 2026-05-05 10:13 | 47.05384 | 2.88692 | 32845 ft | 422 kts | 162° |
| 2026-05-05 10:13 | 46.99797 | 2.91358 | 32847 ft | 421 kts | 162° |
| 2026-05-05 10:14 | 46.94221 | 2.94014 | 32844 ft | 421 kts | 162° |
| 2026-05-05 10:14 | 46.88663 | 2.96654 | 32843 ft | 423 kts | 162° |
| 2026-05-05 10:15 | 46.83058 | 2.99312 | 32848 ft | 423 kts | 162° |
| 2026-05-05 10:15 | 46.77421 | 3.01980 | 32837 ft | 424 kts | 163° |
| 2026-05-05 10:16 | 46.71852 | 3.04609 | 32836 ft | 423 kts | 163° |
| 2026-05-05 10:16 | 46.66244 | 3.07249 | 32852 ft | 423 kts | 163° |
| 2026-05-05 10:17 | 46.60629 | 3.09889 | 32849 ft | 423 kts | 163° |
| 2026-05-05 10:17 | 46.55047 | 3.12508 | 32847 ft | 423 kts | 162° |
| 2026-05-05 10:18 | 46.49497 | 3.15434 | 32860 ft | 424 kts | 160° |
| 2026-05-05 10:18 | 46.43985 | 3.18409 | 32858 ft | 425 kts | 160° |
| 2026-05-05 10:19 | 46.38425 | 3.21403 | 32845 ft | 424 kts | 161° |
| 2026-05-05 10:19 | 46.32890 | 3.24372 | 32871 ft | 424 kts | 161° |
| 2026-05-05 10:20 | 46.27389 | 3.27315 | 32876 ft | 425 kts | 161° |
| 2026-05-05 10:20 | 46.21849 | 3.30273 | 32878 ft | 425 kts | 161° |
| 2026-05-05 10:21 | 46.16301 | 3.33232 | 32875 ft | 425 kts | 161° |
| 2026-05-05 10:21 | 46.10740 | 3.36190 | 32870 ft | 425 kts | 162° |
| 2026-05-05 10:22 | 46.05181 | 3.39139 | 32877 ft | 426 kts | 162° |
| 2026-05-05 10:22 | 45.99647 | 3.42071 | 32882 ft | 426 kts | 162° |
| 2026-05-05 10:23 | 45.94072 | 3.45019 | 32876 ft | 426 kts | 162° |
| 2026-05-05 10:23 | 45.88522 | 3.47946 | 32893 ft | 427 kts | 162° |
| 2026-05-05 10:24 | 45.83829 | 3.50190 | 32895 ft | 426 kts | 165° |
| 2026-05-05 10:24 | 45.78150 | 3.52638 | 32900 ft | 426 kts | 165° |
| 2026-05-05 10:25 | 45.72470 | 3.55081 | 32896 ft | 426 kts | 165° |
| 2026-05-05 10:25 | 45.66783 | 3.57522 | 32886 ft | 426 kts | 166° |
| 2026-05-05 10:26 | 45.61124 | 3.59948 | 32894 ft | 426 kts | 166° |
| 2026-05-05 10:26 | 45.55431 | 3.62385 | 32892 ft | 426 kts | 166° |
| 2026-05-05 10:27 | 45.49777 | 3.64799 | 32890 ft | 426 kts | 166° |
| 2026-05-05 10:27 | 45.44085 | 3.67226 | 32892 ft | 427 kts | 166° |
| 2026-05-05 10:28 | 45.38389 | 3.69646 | 32890 ft | 427 kts | 166° |
| 2026-05-05 10:28 | 45.32691 | 3.72066 | 32898 ft | 427 kts | 166° |
| 2026-05-05 10:29 | 45.27181 | 3.75225 | 32895 ft | 436 kts | 152° |
| 2026-05-05 10:29 | 45.24763 | 3.77894 | 32897 ft | 444 kts | 140° |
| 2026-05-05 10:29 | 45.22767 | 3.81274 | 32906 ft | 451 kts | 129° |
| 2026-05-05 10:30 | 45.19388 | 3.88811 | 32895 ft | 453 kts | 127° |
| 2026-05-05 10:30 | 45.16002 | 3.96366 | 32903 ft | 453 kts | 128° |
| 2026-05-05 10:31 | 45.12605 | 4.03817 | 32903 ft | 453 kts | 128° |
| 2026-05-05 10:31 | 45.09169 | 4.11315 | 32900 ft | 456 kts | 128° |
| 2026-05-05 10:32 | 45.05711 | 4.18839 | 32906 ft | 456 kts | 129° |
| 2026-05-05 10:32 | 45.01999 | 4.26074 | 32886 ft | 449 kts | 138° |
| 2026-05-05 10:33 | 44.97805 | 4.32531 | 32907 ft | 449 kts | 139° |
| 2026-05-05 10:33 | 44.93561 | 4.39019 | 32909 ft | 449 kts | 139° |
| 2026-05-05 10:34 | 44.89328 | 4.45510 | 32910 ft | 451 kts | 139° |
| 2026-05-05 10:34 | 44.85072 | 4.52019 | 32915 ft | 451 kts | 140° |
| 2026-05-05 10:35 | 44.80836 | 4.58484 | 32887 ft | 451 kts | 140° |
| 2026-05-05 10:35 | 44.76559 | 4.64993 | 32908 ft | 453 kts | 140° |
| 2026-05-05 10:36 | 44.72278 | 4.71495 | 32925 ft | 453 kts | 140° |
| 2026-05-05 10:36 | 44.68009 | 4.77966 | 32927 ft | 453 kts | 140° |
| 2026-05-05 10:37 | 44.63732 | 4.84467 | 32926 ft | 454 kts | 139° |
| 2026-05-05 10:37 | 44.59559 | 4.91132 | 32936 ft | 454 kts | 139° |
| 2026-05-05 10:38 | 44.55386 | 4.97798 | 32897 ft | 455 kts | 139° |
| 2026-05-05 10:38 | 44.51225 | 5.04423 | 32926 ft | 455 kts | 139° |
| 2026-05-05 10:39 | 44.47033 | 5.11086 | 32921 ft | 456 kts | 140° |
| 2026-05-05 10:39 | 44.42825 | 5.17758 | 32936 ft | 456 kts | 140° |
| 2026-05-05 10:40 | 44.38661 | 5.24357 | 32498 ft | 448 kts | 140° |
| 2026-05-05 10:40 | 44.36474 | 5.27416 | 31831 ft | 438 kts | 148° |
| 2026-05-05 10:40 | 44.34142 | 5.30040 | 31255 ft | 434 kts | 151° |
| 2026-05-05 10:41 | 44.31763 | 5.32617 | 30731 ft | 430 kts | 151° |
| 2026-05-05 10:41 | 44.29409 | 5.35161 | 30199 ft | 426 kts | 152° |
| 2026-05-05 10:41 | 44.27071 | 5.37695 | 29699 ft | 425 kts | 152° |
| 2026-05-05 10:41 | 44.24731 | 5.40232 | 29203 ft | 427 kts | 152° |
| 2026-05-05 10:42 | 44.20013 | 5.45352 | 28239 ft | 430 kts | 151° |
| 2026-05-05 10:42 | 44.17678 | 5.47885 | 27765 ft | 431 kts | 151° |
| 2026-05-05 10:42 | 44.15303 | 5.50459 | 27283 ft | 432 kts | 150° |
| 2026-05-05 10:43 | 44.12922 | 5.53038 | 26801 ft | 434 kts | 150° |
| 2026-05-05 10:43 | 44.10525 | 5.55633 | 26317 ft | 435 kts | 150° |
| 2026-05-05 10:43 | 44.08129 | 5.58224 | 25801 ft | 437 kts | 150° |
| 2026-05-05 10:43 | 44.05717 | 5.60827 | 25331 ft | 439 kts | 150° |
| 2026-05-05 10:44 | 44.03348 | 5.63385 | 24848 ft | 436 kts | 149° |
| 2026-05-05 10:44 | 44.00956 | 5.65965 | 24361 ft | 433 kts | 149° |
| 2026-05-05 10:44 | 43.98582 | 5.68524 | 23877 ft | 430 kts | 149° |
| 2026-05-05 10:44 | 43.96223 | 5.71061 | 23361 ft | 427 kts | 149° |
| 2026-05-05 10:45 | 43.93879 | 5.73578 | 22796 ft | 425 kts | 148° |
| 2026-05-05 10:45 | 43.91542 | 5.76086 | 22281 ft | 422 kts | 148° |
| 2026-05-05 10:45 | 43.89231 | 5.78565 | 21807 ft | 418 kts | 148° |
| 2026-05-05 10:45 | 43.86967 | 5.80993 | 21322 ft | 415 kts | 148° |
| 2026-05-05 10:46 | 43.84690 | 5.83428 | 20859 ft | 410 kts | 148° |
| 2026-05-05 10:46 | 43.82440 | 5.85828 | 20410 ft | 407 kts | 148° |
| 2026-05-05 10:46 | 43.80205 | 5.88210 | 19944 ft | 403 kts | 148° |
| 2026-05-05 10:46 | 43.77994 | 5.90566 | 19483 ft | 398 kts | 148° |
| 2026-05-05 10:47 | 43.75796 | 5.92906 | 19030 ft | 395 kts | 148° |
| 2026-05-05 10:47 | 43.73622 | 5.95220 | 18572 ft | 392 kts | 147° |
| 2026-05-05 10:47 | 43.71496 | 5.97479 | 18100 ft | 388 kts | 147° |
| 2026-05-05 10:47 | 43.69332 | 5.99774 | 17570 ft | 385 kts | 147° |
| 2026-05-05 10:48 | 43.67237 | 6.01993 | 17089 ft | 383 kts | 147° |
| 2026-05-05 10:48 | 43.65124 | 6.04231 | 16633 ft | 381 kts | 147° |
| 2026-05-05 10:48 | 43.63018 | 6.06461 | 16172 ft | 381 kts | 147° |
| 2026-05-05 10:48 | 43.60966 | 6.08769 | 15718 ft | 381 kts | 141° |
| 2026-05-05 10:49 | 43.59278 | 6.11615 | 15245 ft | 387 kts | 126° |
| 2026-05-05 10:49 | 43.58125 | 6.14989 | 14792 ft | 390 kts | 115° |
| 2026-05-05 10:49 | 43.57185 | 6.18493 | 14338 ft | 389 kts | 114° |
| 2026-05-05 10:49 | 43.56269 | 6.21960 | 13866 ft | 389 kts | 114° |
| 2026-05-05 10:50 | 43.55329 | 6.25451 | 13354 ft | 388 kts | 114° |
| 2026-05-05 10:50 | 43.54378 | 6.28937 | 12837 ft | 387 kts | 114° |
| 2026-05-05 10:50 | 43.53426 | 6.32402 | 12339 ft | 386 kts | 114° |
| 2026-05-05 10:50 | 43.52474 | 6.35856 | 11865 ft | 383 kts | 114° |
| 2026-05-05 10:51 | 43.51538 | 6.39240 | 11529 ft | 371 kts | 114° |
| 2026-05-05 10:51 | 43.50615 | 6.42495 | 11295 ft | 357 kts | 117° |
| 2026-05-05 10:51 | 43.49298 | 6.45258 | 11098 ft | 336 kts | 136° |
| 2026-05-05 10:51 | 43.47701 | 6.47516 | 10919 ft | 322 kts | 139° |
| 2026-05-05 10:52 | 43.46151 | 6.49670 | 10782 ft | 311 kts | 139° |
| 2026-05-05 10:52 | 43.44685 | 6.51732 | 10638 ft | 300 kts | 138° |
| 2026-05-05 10:52 | 43.43234 | 6.53793 | 10260 ft | 299 kts | 138° |
| 2026-05-05 10:52 | 43.41783 | 6.55863 | 9838 ft | 301 kts | 138° |
| 2026-05-05 10:53 | 43.40339 | 6.57930 | 9543 ft | 298 kts | 138° |
| 2026-05-05 10:53 | 43.38907 | 6.59983 | 9171 ft | 298 kts | 138° |
| 2026-05-05 10:53 | 43.37503 | 6.62077 | 8860 ft | 298 kts | 132° |
| 2026-05-05 10:53 | 43.36526 | 6.64563 | 8478 ft | 302 kts | 110° |
| 2026-05-05 10:54 | 43.36303 | 6.67446 | 8070 ft | 306 kts | 85° |
| 2026-05-05 10:54 | 43.36906 | 6.70219 | 7719 ft | 304 kts | 64° |
| 2026-05-05 10:54 | 43.37912 | 6.72761 | 7332 ft | 302 kts | 60° |
| 2026-05-05 10:54 | 43.38952 | 6.75262 | 6968 ft | 300 kts | 60° |
| 2026-05-05 10:55 | 43.39969 | 6.77755 | 6606 ft | 298 kts | 60° |
| 2026-05-05 10:55 | 43.40973 | 6.80234 | 6271 ft | 295 kts | 61° |
| 2026-05-05 10:55 | 43.41960 | 6.82694 | 5943 ft | 291 kts | 61° |
| 2026-05-05 10:55 | 43.42934 | 6.85093 | 5745 ft | 282 kts | 60° |
| 2026-05-05 10:56 | 43.43856 | 6.87380 | 5562 ft | 270 kts | 61° |
| 2026-05-05 10:56 | 43.44749 | 6.89633 | 5051 ft | 266 kts | 61° |
| 2026-05-05 10:56 | 43.45611 | 6.91825 | 4764 ft | 254 kts | 62° |
| 2026-05-05 10:56 | 43.46426 | 6.93912 | 4555 ft | 236 kts | 62° |
| 2026-05-05 10:57 | 43.47282 | 6.95745 | 4477 ft | 224 kts | 51° |
| 2026-05-05 10:57 | 43.48309 | 6.97330 | 4273 ft | 218 kts | 40° |
| 2026-05-05 10:57 | 43.49398 | 6.98745 | 4041 ft | 216 kts | 44° |
| 2026-05-05 10:57 | 43.50428 | 7.00147 | 3971 ft | 203 kts | 44° |
| 2026-05-05 10:58 | 43.51408 | 7.01489 | 3808 ft | 195 kts | 44° |
| 2026-05-05 10:58 | 43.52358 | 7.02790 | 3569 ft | 190 kts | 44° |
| 2026-05-05 10:58 | 43.53288 | 7.04065 | 3316 ft | 186 kts | 44° |
| 2026-05-05 10:58 | 43.54195 | 7.05309 | 3064 ft | 182 kts | 44° |
| 2026-05-05 10:59 | 43.55087 | 7.06532 | 2806 ft | 179 kts | 44° |
| 2026-05-05 10:59 | 43.55959 | 7.07728 | 2577 ft | 175 kts | 45° |
| 2026-05-05 10:59 | 43.56807 | 7.08892 | 2348 ft | 171 kts | 45° |
| 2026-05-05 10:59 | 43.57643 | 7.10040 | 2181 ft | 171 kts | 45° |
| 2026-05-05 11:00 | 43.58490 | 7.11204 | 1947 ft | 171 kts | 45° |
| 2026-05-05 11:00 | 43.59328 | 7.12357 | 1697 ft | 170 kts | 46° |
| 2026-05-05 11:00 | 43.60145 | 7.13511 | 1461 ft | 165 kts | 47° |
| 2026-05-05 11:00 | 43.60893 | 7.14568 | 1185 ft | 150 kts | 45° |
| 2026-05-05 11:01 | 43.61626 | 7.15447 | 949 ft | 136 kts | 46° |
| 2026-05-05 11:01 | 43.62322 | 7.16368 | 733 ft | 137 kts | 49° |
| 2026-05-05 11:01 | 43.62976 | 7.17346 | 579 ft | 139 kts | 49° |
| 2026-05-05 11:01 | 43.63662 | 7.18288 | 463 ft | 137 kts | 47° |
| 2026-05-05 11:02 | 43.64333 | 7.19214 | 354 ft | 134 kts | 49° |
| 2026-05-05 11:02 | 43.64990 | 7.20123 | 176 ft | 134 kts | 49° |
| 2026-05-05 11:02 | 43.65575 | 7.20943 | 37 ft | 131 kts | 47° |
| 2026-05-05 11:02 | 43.66144 | 7.21729 | 26 ft | 85 kts | 43° |
| 2026-05-05 11:03 | 43.66386 | 7.22063 | 28 ft | 13 kts | 47° |
| 2026-05-05 11:03 | 43.66467 | 7.22126 | 27 ft | 15 kts | 351° |
| 2026-05-05 11:03 | 43.66554 | 7.22035 | 26 ft | 17 kts | 291° |
| 2026-05-05 11:03 | 43.66498 | 7.21893 | 26 ft | 19 kts | 218° |
| 2026-05-05 11:04 | 43.66402 | 7.21761 | 26 ft | 21 kts | 223° |
| 2026-05-05 11:04 | 43.66320 | 7.21627 | 26 ft | 10 kts | 265° |
| 2026-05-05 11:04 | 43.66371 | 7.21543 | 26 ft | 13 kts | 321° |
| 2026-05-05 11:04 | 43.66442 | 7.21451 | 26 ft | 13 kts | 315° |
| 2026-05-05 11:05 | 43.66447 | 7.21444 | 26 ft | 0 kts | 315° |